createdAt,value
2018-08-06T00:00:02.000Z,100773
2018-08-06T00:01:17.000Z,100774
2018-08-06T00:03:17.000Z,100774
2018-08-06T00:05:17.000Z,100774
2018-08-06T00:07:17.000Z,100775
2018-08-06T00:09:17.000Z,100770
2018-08-06T00:11:17.000Z,100769
2018-08-06T00:13:17.000Z,100770
2018-08-06T00:15:17.000Z,100764
2018-08-06T00:17:17.000Z,100767
2018-08-06T00:19:17.000Z,100771
2018-08-06T00:21:17.000Z,100767
2018-08-06T00:23:17.000Z,100769
2018-08-06T00:25:17.000Z,100764
2018-08-06T00:26:17.000Z,100760
2018-08-06T00:28:17.000Z,100767
2018-08-06T00:29:17.000Z,100761
2018-08-06T00:31:17.000Z,100756
2018-08-06T00:33:17.000Z,100756
2018-08-06T00:35:17.000Z,100756
2018-08-06T00:36:17.000Z,100755
2018-08-06T00:38:17.000Z,100752
2018-08-06T00:39:17.000Z,100756
2018-08-06T00:41:17.000Z,100749
2018-08-06T00:43:17.000Z,100753
2018-08-06T00:45:17.000Z,100748
2018-08-06T00:47:17.000Z,100750
2018-08-06T00:48:17.000Z,100745
2018-08-06T00:50:02.000Z,100745
2018-08-06T00:51:17.000Z,100741
2018-08-06T00:53:17.000Z,100740
2018-08-06T00:54:17.000Z,100742
2018-08-06T00:56:17.000Z,100731
2018-08-06T00:58:17.000Z,100735
2018-08-06T01:00:17.000Z,100738
2018-08-06T01:02:17.000Z,100728
2018-08-06T01:04:17.000Z,100725
2018-08-06T01:05:17.000Z,100720
2018-08-06T01:07:17.000Z,100716
2018-08-06T01:08:17.000Z,100718
2018-08-06T01:09:17.000Z,100722
2018-08-06T01:11:17.000Z,100716
2018-08-06T01:12:17.000Z,100712
2018-08-06T01:14:02.000Z,100713
2018-08-06T01:15:17.000Z,100710
2018-08-06T01:16:17.000Z,100702
2018-08-06T01:18:17.000Z,100699
2018-08-06T01:19:17.000Z,100700
2018-08-06T01:20:17.000Z,100697
2018-08-06T01:22:17.000Z,100700
2018-08-06T01:23:17.000Z,100702
2018-08-06T01:25:02.000Z,100697
2018-08-06T01:26:17.000Z,100697
2018-08-06T01:28:17.000Z,100695
2018-08-06T01:30:17.000Z,100694
2018-08-06T01:32:02.000Z,100689
2018-08-06T01:33:02.000Z,100692
2018-08-06T01:34:17.000Z,100690
2018-08-06T01:36:17.000Z,100690
2018-08-06T01:38:17.000Z,100685
2018-08-06T01:40:17.000Z,100686
2018-08-06T01:41:17.000Z,100686
2018-08-06T01:43:17.000Z,100684
2018-08-06T01:45:17.000Z,100676
2018-08-06T01:47:17.000Z,100681
2018-08-06T01:49:17.000Z,100675
2018-08-06T01:51:17.000Z,100682
2018-08-06T01:53:17.000Z,100684
2018-08-06T01:55:02.000Z,100683
2018-08-06T01:56:17.000Z,100680
2018-08-06T01:58:17.000Z,100678
2018-08-06T01:59:17.000Z,100671
2018-08-06T02:01:17.000Z,100674
2018-08-06T02:02:17.000Z,100672
2018-08-06T02:04:02.000Z,100671
2018-08-06T02:05:17.000Z,100675
2018-08-06T02:07:17.000Z,100666
2018-08-06T02:08:17.000Z,100670
2018-08-06T02:10:17.000Z,100670
2018-08-06T02:11:17.000Z,100667
2018-08-06T02:12:17.000Z,100670
2018-08-06T02:14:17.000Z,100664
2018-08-06T02:16:17.000Z,100662
2018-08-06T02:17:17.000Z,100658
2018-08-06T02:18:17.000Z,100657
2018-08-06T02:20:02.000Z,100655
2018-08-06T02:21:17.000Z,100653
2018-08-06T02:23:17.000Z,100656
2018-08-06T02:25:17.000Z,100654
2018-08-06T02:27:17.000Z,100652
2018-08-06T02:29:17.000Z,100647
2018-08-06T02:31:17.000Z,100644
2018-08-06T02:32:46.000Z,100643
2018-08-06T02:34:17.000Z,100652
2018-08-06T02:36:17.000Z,100652
2018-08-06T02:37:17.000Z,100654
2018-08-06T02:38:17.000Z,100651
2018-08-06T02:40:17.000Z,100647
2018-08-06T02:41:17.000Z,100646
2018-08-06T02:43:17.000Z,100639
2018-08-06T02:45:17.000Z,100639
2018-08-06T02:47:02.000Z,100642
2018-08-06T02:48:17.000Z,100635
2018-08-06T02:49:17.000Z,100642
2018-08-06T02:51:17.000Z,100637
2018-08-06T02:52:17.000Z,100636
2018-08-06T02:54:02.000Z,100632
2018-08-06T02:55:17.000Z,100636
2018-08-06T02:57:17.000Z,100639
2018-08-06T02:58:17.000Z,100639
2018-08-06T02:59:17.000Z,100636
2018-08-06T03:01:17.000Z,100632
2018-08-06T03:03:02.000Z,100628
2018-08-06T03:04:17.000Z,100625
2018-08-06T03:06:17.000Z,100625
2018-08-06T03:08:17.000Z,100623
2018-08-06T03:10:17.000Z,100621
2018-08-06T03:12:17.000Z,100617
2018-08-06T03:14:02.000Z,100619
2018-08-06T03:15:17.000Z,100620
2018-08-06T03:16:17.000Z,100620
2018-08-06T03:18:17.000Z,100620
2018-08-06T03:20:17.000Z,100619
2018-08-06T03:21:17.000Z,100615
2018-08-06T03:23:17.000Z,100613
2018-08-06T03:25:17.000Z,100622
2018-08-06T03:26:17.000Z,100615
2018-08-06T03:28:17.000Z,100607
2018-08-06T03:29:17.000Z,100609
2018-08-06T03:30:17.000Z,100608
2018-08-06T03:32:17.000Z,100615
2018-08-06T03:34:17.000Z,100614
2018-08-06T03:35:17.000Z,100609
2018-08-06T03:37:17.000Z,100606
2018-08-06T03:39:17.000Z,100605
2018-08-06T03:40:17.000Z,100608
2018-08-06T03:42:17.000Z,100608
2018-08-06T03:44:17.000Z,100605
2018-08-06T03:45:17.000Z,100604
2018-08-06T03:47:17.000Z,100603
2018-08-06T03:49:17.000Z,100604
2018-08-06T03:51:17.000Z,100611
2018-08-06T03:53:17.000Z,100601
2018-08-06T03:55:02.000Z,100605
2018-08-06T03:56:17.000Z,100595
2018-08-06T03:58:17.000Z,100601
2018-08-06T04:00:17.000Z,100605
2018-08-06T04:02:17.000Z,100598
2018-08-06T04:03:17.000Z,100602
2018-08-06T04:04:17.000Z,100601
2018-08-06T04:06:18.000Z,100600
2018-08-06T04:08:18.000Z,100605
2018-08-06T04:09:18.000Z,100604
2018-08-06T04:11:18.000Z,100605
2018-08-06T04:13:18.000Z,100601
2018-08-06T04:15:18.000Z,100602
2018-08-06T04:17:18.000Z,100601
2018-08-06T04:18:18.000Z,100594
2018-08-06T04:20:18.000Z,100594
2018-08-06T04:21:18.000Z,100593
2018-08-06T04:23:02.000Z,100598
2018-08-06T04:24:18.000Z,100595
2018-08-06T04:26:02.000Z,100600
2018-08-06T04:27:02.000Z,100601
2018-08-06T04:28:18.000Z,100600
2018-08-06T04:29:18.000Z,100604
2018-08-06T04:31:18.000Z,100591
2018-08-06T04:33:18.000Z,100593
2018-08-06T04:35:02.000Z,100606
2018-08-06T04:36:02.000Z,100596
2018-08-06T04:37:18.000Z,100607
2018-08-06T04:39:18.000Z,100602
2018-08-06T04:41:18.000Z,100606
2018-08-06T04:42:18.000Z,100604
2018-08-06T04:43:18.000Z,100603
2018-08-06T04:45:02.000Z,100603
2018-08-06T04:46:18.000Z,100609
2018-08-06T04:48:18.000Z,100610
2018-08-06T04:50:18.000Z,100608
2018-08-06T04:52:02.000Z,100609
2018-08-06T04:53:18.000Z,100605
2018-08-06T04:54:18.000Z,100603
2018-08-06T04:56:18.000Z,100601
2018-08-06T04:58:18.000Z,100603
2018-08-06T05:00:02.000Z,100605
2018-08-06T05:01:18.000Z,100600
2018-08-06T05:03:02.000Z,100600
2018-08-06T05:04:18.000Z,100599
2018-08-06T05:06:18.000Z,100594
2018-08-06T05:08:17.000Z,100597
2018-08-06T05:10:17.000Z,100597
2018-08-06T05:12:17.000Z,100594
2018-08-06T05:14:17.000Z,100591
2018-08-06T05:16:17.000Z,100588
2018-08-06T05:18:17.000Z,100592
2018-08-06T05:20:17.000Z,100592
2018-08-06T05:21:17.000Z,100594
2018-08-06T05:22:17.000Z,100601
2018-08-06T05:23:17.000Z,100594
2018-08-06T05:25:17.000Z,100599
2018-08-06T05:26:17.000Z,100605
2018-08-06T05:28:17.000Z,100600
2018-08-06T05:30:17.000Z,100598
2018-08-06T05:31:17.000Z,100602
2018-08-06T05:33:17.000Z,100600
2018-08-06T05:34:17.000Z,100604
2018-08-06T05:35:17.000Z,100603
2018-08-06T05:37:17.000Z,100602
2018-08-06T05:39:02.000Z,100601
2018-08-06T05:40:17.000Z,100596
2018-08-06T05:42:17.000Z,100592
2018-08-06T05:44:17.000Z,100592
2018-08-06T05:46:17.000Z,100587
2018-08-06T05:47:17.000Z,100587
2018-08-06T05:49:17.000Z,100590
2018-08-06T05:51:17.000Z,100594
2018-08-06T05:53:17.000Z,100595
2018-08-06T05:54:17.000Z,100593
2018-08-06T05:56:17.000Z,100597
2018-08-06T05:57:17.000Z,100590
2018-08-06T05:58:47.000Z,100593
2018-08-06T06:00:17.000Z,100594
2018-08-06T06:02:02.000Z,100602
2018-08-06T06:03:17.000Z,100602
2018-08-06T06:04:17.000Z,100604
2018-08-06T06:06:17.000Z,100606
2018-08-06T06:08:17.000Z,100596
2018-08-06T06:10:17.000Z,100600
2018-08-06T06:12:18.000Z,100600
2018-08-06T06:14:18.000Z,100595
2018-08-06T06:15:18.000Z,100595
2018-08-06T06:17:18.000Z,100596
2018-08-06T06:19:18.000Z,100601
2018-08-06T06:21:18.000Z,100600
2018-08-06T06:23:18.000Z,100601
2018-08-06T06:24:18.000Z,100604
2018-08-06T06:26:18.000Z,100601
2018-08-06T06:27:18.000Z,100604
2018-08-06T06:29:18.000Z,100602
2018-08-06T06:31:18.000Z,100604
2018-08-06T06:33:18.000Z,100603
2018-08-06T06:35:18.000Z,100605
2018-08-06T06:36:18.000Z,100601
2018-08-06T06:38:18.000Z,100603
2018-08-06T06:39:18.000Z,100603
2018-08-06T06:40:18.000Z,100604
2018-08-06T06:42:18.000Z,100599
2018-08-06T06:44:18.000Z,100597
2018-08-06T06:46:02.000Z,100596
2018-08-06T06:47:18.000Z,100599
2018-08-06T06:48:18.000Z,100596
2018-08-06T06:50:18.000Z,100599
2018-08-06T06:52:18.000Z,100596
2018-08-06T06:54:18.000Z,100594
2018-08-06T06:56:18.000Z,100596
2018-08-06T06:58:18.000Z,100594
2018-08-06T07:00:18.000Z,100598
2018-08-06T07:02:02.000Z,100598
2018-08-06T07:03:18.000Z,100597
2018-08-06T07:04:18.000Z,100596
2018-08-06T07:06:02.000Z,100597
2018-08-06T07:07:18.000Z,100592
2018-08-06T07:09:18.000Z,100594
2018-08-06T07:10:18.000Z,100596
2018-08-06T07:12:18.000Z,100587
2018-08-06T07:14:18.000Z,100592
2018-08-06T07:15:18.000Z,100587
2018-08-06T07:17:17.000Z,100584
2018-08-06T07:19:17.000Z,100586
2018-08-06T07:21:17.000Z,100585
2018-08-06T07:23:02.000Z,100587
2018-08-06T07:24:17.000Z,100586
2018-08-06T07:26:17.000Z,100579
2018-08-06T07:27:17.000Z,100579
2018-08-06T07:29:17.000Z,100578
2018-08-06T07:30:17.000Z,100576
2018-08-06T07:32:17.000Z,100571
2018-08-06T07:34:17.000Z,100570
2018-08-06T07:36:17.000Z,100568
2018-08-06T07:38:17.000Z,100569
2018-08-06T07:39:17.000Z,100569
2018-08-06T07:41:17.000Z,100571
2018-08-06T07:43:17.000Z,100560
2018-08-06T07:45:17.000Z,100562
2018-08-06T07:47:17.000Z,100564
2018-08-06T07:49:17.000Z,100563
2018-08-06T07:50:17.000Z,100566
2018-08-06T07:52:17.000Z,100563
2018-08-06T07:53:17.000Z,100557
2018-08-06T07:55:17.000Z,100557
2018-08-06T07:57:17.000Z,100553
2018-08-06T07:59:17.000Z,100548
2018-08-06T08:00:17.000Z,100546
2018-08-06T08:01:17.000Z,100547
2018-08-06T08:03:02.000Z,100546
2018-08-06T08:04:17.000Z,100544
2018-08-06T08:05:17.000Z,100541
2018-08-06T08:06:17.000Z,100534
2018-08-06T08:08:17.000Z,100535
2018-08-06T08:10:17.000Z,100540
2018-08-06T08:12:17.000Z,100542
2018-08-06T08:14:17.000Z,100529
2018-08-06T08:16:17.000Z,100531
2018-08-06T08:17:17.000Z,100527
2018-08-06T08:19:02.000Z,100531
2018-08-06T08:20:17.000Z,100526
2018-08-06T08:22:17.000Z,100523
2018-08-06T08:24:17.000Z,100520
2018-08-06T08:25:17.000Z,100519
2018-08-06T08:26:17.000Z,100519
2018-08-06T08:28:02.000Z,100513
2018-08-06T08:29:17.000Z,100510
2018-08-06T08:31:17.000Z,100505
2018-08-06T08:32:17.000Z,100513
2018-08-06T08:34:17.000Z,100507
2018-08-06T08:36:17.000Z,100506
2018-08-06T08:38:17.000Z,100501
2018-08-06T08:40:17.000Z,100500
2018-08-06T08:42:17.000Z,100494
2018-08-06T08:44:17.000Z,100491
2018-08-06T08:46:17.000Z,100487
2018-08-06T08:47:17.000Z,100495
2018-08-06T08:49:17.000Z,100486
2018-08-06T08:50:17.000Z,100491
2018-08-06T08:52:17.000Z,100489
2018-08-06T08:54:17.000Z,100486
2018-08-06T08:56:17.000Z,100489
2018-08-06T08:58:17.000Z,100479
2018-08-06T09:00:17.000Z,100476
2018-08-06T09:02:17.000Z,100471
2018-08-06T09:04:17.000Z,100471
2018-08-06T09:05:17.000Z,100471
2018-08-06T09:07:17.000Z,100469
2018-08-06T09:09:17.000Z,100469
2018-08-06T09:11:17.000Z,100464
2018-08-06T09:12:17.000Z,100467
2018-08-06T09:14:17.000Z,100464
2018-08-06T09:15:17.000Z,100463
2018-08-06T09:17:17.000Z,100465
2018-08-06T09:19:17.000Z,100461
2018-08-06T09:20:17.000Z,100453
2018-08-06T09:22:02.000Z,100459
2018-08-06T09:23:17.000Z,100453
2018-08-06T09:24:17.000Z,100451
2018-08-06T09:25:47.000Z,100460
2018-08-06T09:27:17.000Z,100461
2018-08-06T09:29:17.000Z,100456
2018-08-06T09:31:17.000Z,100459
2018-08-06T09:33:17.000Z,100450
2018-08-06T09:34:17.000Z,100451
2018-08-06T09:36:02.000Z,100445
2018-08-06T09:37:17.000Z,100447
2018-08-06T09:39:17.000Z,100447
2018-08-06T09:41:02.000Z,100447
2018-08-06T09:42:17.000Z,100445
2018-08-06T09:44:02.000Z,100445
2018-08-06T09:45:17.000Z,100445
2018-08-06T09:46:17.000Z,100449
2018-08-06T09:48:17.000Z,100440
2018-08-06T09:50:17.000Z,100446
2018-08-06T09:52:17.000Z,100435
2018-08-06T09:54:17.000Z,100433
2018-08-06T09:56:17.000Z,100426
2018-08-06T09:58:17.000Z,100430
2018-08-06T10:00:17.000Z,100425
2018-08-06T10:02:17.000Z,100416
2018-08-06T10:03:17.000Z,100416
2018-08-06T10:05:02.000Z,100413
2018-08-06T10:06:17.000Z,100405
2018-08-06T10:08:17.000Z,100407
2018-08-06T10:10:17.000Z,100402
2018-08-06T10:12:17.000Z,100392
2018-08-06T10:13:17.000Z,100391
2018-08-06T10:14:17.000Z,100391
2018-08-06T10:15:17.000Z,100385
2018-08-06T10:17:02.000Z,100382
2018-08-06T10:18:17.000Z,100384
2018-08-06T10:19:17.000Z,100385
2018-08-06T10:21:17.000Z,100380
2018-08-06T10:22:17.000Z,100380
2018-08-06T10:24:17.000Z,100381
2018-08-06T10:26:17.000Z,100376
2018-08-06T10:27:17.000Z,100375
2018-08-06T10:29:17.000Z,100368
2018-08-06T10:30:17.000Z,100365
2018-08-06T10:32:17.000Z,100371
2018-08-06T10:34:17.000Z,100357
2018-08-06T10:36:17.000Z,100360
2018-08-06T10:37:17.000Z,100359
2018-08-06T10:39:17.000Z,100354
2018-08-06T10:40:17.000Z,100349
2018-08-06T10:42:17.000Z,100352
2018-08-06T10:44:02.000Z,100351
2018-08-06T10:45:17.000Z,100350
2018-08-06T10:47:17.000Z,100343
2018-08-06T10:49:17.000Z,100338
2018-08-06T10:51:17.000Z,100332
2018-08-06T10:53:17.000Z,100333
2018-08-06T10:54:17.000Z,100332
2018-08-06T10:56:17.000Z,100329
2018-08-06T10:57:17.000Z,100331
2018-08-06T10:58:17.000Z,100323
2018-08-06T10:59:17.000Z,100320
2018-08-06T11:01:17.000Z,100334
2018-08-06T11:02:17.000Z,100318
2018-08-06T11:04:17.000Z,100312
2018-08-06T11:06:02.000Z,100310
2018-08-06T11:07:17.000Z,100312
2018-08-06T11:08:17.000Z,100311
2018-08-06T11:10:17.000Z,100309
2018-08-06T11:11:17.000Z,100307
2018-08-06T11:13:02.000Z,100310
2018-08-06T11:14:17.000Z,100309
2018-08-06T11:15:17.000Z,100301
2018-08-06T11:17:17.000Z,100304
2018-08-06T11:18:17.000Z,100311
2018-08-06T11:19:47.000Z,100297
2018-08-06T11:21:17.000Z,100288
2018-08-06T11:23:17.000Z,100295
2018-08-06T11:25:02.000Z,100281
2018-08-06T11:26:17.000Z,100291
2018-08-06T11:28:02.000Z,100281
2018-08-06T11:29:17.000Z,100284
2018-08-06T11:30:17.000Z,100282
2018-08-06T11:32:18.000Z,100280
2018-08-06T11:33:18.000Z,100281
2018-08-06T11:35:18.000Z,100284
2018-08-06T11:37:18.000Z,100283
2018-08-06T11:39:18.000Z,100283
2018-08-06T11:41:18.000Z,100271
2018-08-06T11:45:04.000Z,100267
2018-08-06T11:46:04.000Z,100266
2018-08-06T11:48:04.000Z,100264
2018-08-06T11:49:04.000Z,100262
2018-08-06T11:50:04.000Z,100260
2018-08-06T11:52:04.000Z,100258
2018-08-06T11:54:04.000Z,100258
2018-08-06T11:55:04.000Z,100259
2018-08-06T11:57:04.000Z,100268
2018-08-06T11:58:04.000Z,100264
2018-08-06T11:59:04.000Z,100258
2018-08-06T12:01:04.000Z,100255
2018-08-06T12:02:48.000Z,100250
2018-08-06T12:04:04.000Z,100245
2018-08-06T12:06:04.000Z,100245
2018-08-06T12:07:48.000Z,100243
2018-08-06T12:09:04.000Z,100250
2018-08-06T12:10:33.000Z,100242
2018-08-06T12:12:04.000Z,100239
2018-08-06T12:13:04.000Z,100240
2018-08-06T12:14:48.000Z,100244
2018-08-06T12:17:04.000Z,100234
2018-08-06T12:19:04.000Z,100233
2018-08-06T12:21:04.000Z,100229
2018-08-06T12:23:04.000Z,100233
2018-08-06T12:24:48.000Z,100228
2018-08-06T12:26:04.000Z,100234
2018-08-06T12:27:04.000Z,100231
2018-08-06T12:29:04.000Z,100229
2018-08-06T12:31:04.000Z,100235
2018-08-06T12:33:04.000Z,100235
2018-08-06T12:34:03.000Z,100234
2018-08-06T12:36:03.000Z,100232
2018-08-06T12:37:03.000Z,100228
2018-08-06T12:39:03.000Z,100223
2018-08-06T12:40:03.000Z,100228
2018-08-06T12:41:03.000Z,100229
2018-08-06T12:42:48.000Z,100168
2018-08-06T12:44:03.000Z,100230
2018-08-06T12:46:03.000Z,100222
2018-08-06T12:47:03.000Z,100223
2018-08-06T12:49:03.000Z,100216
2018-08-06T12:51:03.000Z,100215
2018-08-06T12:52:03.000Z,100217
2018-08-06T12:53:33.000Z,100212
2018-08-06T12:55:03.000Z,100214
2018-08-06T12:57:03.000Z,100219
2018-08-06T12:58:03.000Z,100222
2018-08-06T13:00:03.000Z,100222
2018-08-06T13:01:03.000Z,100221
2018-08-06T13:03:03.000Z,100208
2018-08-06T13:04:03.000Z,100205
2018-08-06T13:06:03.000Z,100197
2018-08-06T13:07:03.000Z,100194
2018-08-06T13:08:03.000Z,100216
2018-08-06T13:10:03.000Z,100201
2018-08-06T13:11:03.000Z,100202
2018-08-06T13:13:03.000Z,100203
2018-08-06T13:15:03.000Z,100196
2018-08-06T13:17:03.000Z,100196
2018-08-06T13:18:33.000Z,100198
2018-08-06T13:20:03.000Z,100195
2018-08-06T13:21:03.000Z,100195
2018-08-06T13:23:03.000Z,100190
2018-08-06T13:24:48.000Z,100187
2018-08-06T13:27:03.000Z,100186
2018-08-06T13:28:03.000Z,100190
2018-08-06T13:30:03.000Z,100184
2018-08-06T13:32:03.000Z,100184
2018-08-06T13:33:03.000Z,100182
2018-08-06T13:35:03.000Z,100178
2018-08-06T13:37:03.000Z,100170
2018-08-06T13:39:03.000Z,100158
2018-08-06T13:40:03.000Z,100164
2018-08-06T13:41:48.000Z,100158
2018-08-06T13:43:03.000Z,100161
2018-08-06T13:45:03.000Z,100155
2018-08-06T13:47:03.000Z,100152
2018-08-06T13:49:03.000Z,100147
2018-08-06T13:51:03.000Z,100144
2018-08-06T13:53:03.000Z,100153
2018-08-06T13:55:03.000Z,100146
2018-08-06T13:56:03.000Z,100146
2018-08-06T13:58:03.000Z,100143
2018-08-06T13:59:48.000Z,100140
2018-08-06T14:01:03.000Z,100137
2018-08-06T14:03:03.000Z,100136
2018-08-06T14:04:48.000Z,100133
2018-08-06T14:06:03.000Z,100135
2018-08-06T14:07:03.000Z,100136
2018-08-06T14:09:03.000Z,100132
2018-08-06T14:11:03.000Z,100132
2018-08-06T14:12:48.000Z,100135
2018-08-06T14:14:03.000Z,100130
2018-08-06T14:17:49.000Z,100130
2018-08-06T14:19:49.000Z,100129
2018-08-06T14:21:49.000Z,100123
2018-08-06T14:23:49.000Z,100118
2018-08-06T14:24:49.000Z,100119
2018-08-06T14:26:49.000Z,100120
2018-08-06T14:28:49.000Z,100118
2018-08-06T14:30:34.000Z,100119
2018-08-06T14:31:49.000Z,100125
2018-08-06T14:33:49.000Z,100120
2018-08-06T14:34:49.000Z,100118
2018-08-06T14:36:49.000Z,100107
2018-08-06T14:38:49.000Z,100107
2018-08-06T14:39:49.000Z,100107
2018-08-06T14:41:49.000Z,100102
2018-08-06T14:42:49.000Z,100096
2018-08-06T14:44:49.000Z,100099
2018-08-06T14:46:49.000Z,100094
2018-08-06T14:48:49.000Z,100095
2018-08-06T14:49:49.000Z,100091
2018-08-06T14:51:49.000Z,100090
2018-08-06T14:53:49.000Z,100084
2018-08-06T14:54:49.000Z,100090
2018-08-06T14:56:49.000Z,100084
2018-08-06T14:58:49.000Z,100083
2018-08-06T15:00:34.000Z,100077
2018-08-06T15:01:49.000Z,100082
2018-08-06T15:03:49.000Z,100080
2018-08-06T15:05:49.000Z,100076
2018-08-06T15:06:49.000Z,100078
2018-08-06T15:07:49.000Z,100077
2018-08-06T15:09:49.000Z,100072
2018-08-06T15:11:49.000Z,100072
2018-08-06T15:13:19.000Z,100073
2018-08-06T15:14:49.000Z,100072
2018-08-06T15:15:49.000Z,100068
2018-08-06T15:17:34.000Z,100069
2018-08-06T15:18:49.000Z,100065
2018-08-06T15:19:49.000Z,100072
2018-08-06T15:21:49.000Z,100068
2018-08-06T15:22:49.000Z,100065
2018-08-06T15:23:49.000Z,100070
2018-08-06T15:25:49.000Z,100065
2018-08-06T15:27:49.000Z,100059
2018-08-06T15:29:49.000Z,100055
2018-08-06T15:30:49.000Z,100054
2018-08-06T15:32:49.000Z,100056
2018-08-06T15:34:49.000Z,100054
2018-08-06T15:36:49.000Z,100050
2018-08-06T15:38:49.000Z,100045
2018-08-06T15:40:49.000Z,100041
2018-08-06T15:42:49.000Z,100046
2018-08-06T15:43:49.000Z,100049
2018-08-06T15:45:49.000Z,100044
2018-08-06T15:46:49.000Z,100044
2018-08-06T15:48:49.000Z,100042
2018-08-06T15:50:49.000Z,100035
2018-08-06T15:51:49.000Z,100037
2018-08-06T15:53:49.000Z,100037
2018-08-06T15:54:49.000Z,100033
2018-08-06T15:56:49.000Z,100038
2018-08-06T15:57:49.000Z,100033
2018-08-06T15:59:49.000Z,100033
2018-08-06T16:01:49.000Z,100033
2018-08-06T16:03:49.000Z,100030
2018-08-06T16:05:49.000Z,100022
2018-08-06T16:07:49.000Z,100024
2018-08-06T16:09:49.000Z,100021
2018-08-06T16:11:34.000Z,100019
2018-08-06T16:12:49.000Z,100023
2018-08-06T16:14:49.000Z,100015
2018-08-06T16:16:49.000Z,100022
2018-08-06T16:17:49.000Z,100016
2018-08-06T16:19:49.000Z,100019
2018-08-06T16:21:34.000Z,100018
2018-08-06T16:22:49.000Z,100021
2018-08-06T16:24:49.000Z,100011
2018-08-06T16:26:49.000Z,100009
2018-08-06T16:28:49.000Z,100005
2018-08-06T16:29:49.000Z,100004
2018-08-06T16:31:34.000Z,100011
2018-08-06T16:32:49.000Z,100011
2018-08-06T16:34:19.000Z,100007
2018-08-06T16:35:49.000Z,100005
2018-08-06T16:37:49.000Z,100005
2018-08-06T16:38:49.000Z,100004
2018-08-06T16:40:49.000Z,100001
2018-08-06T16:42:49.000Z,100000
2018-08-06T16:44:49.000Z,99996
2018-08-06T16:46:49.000Z,99997
2018-08-06T16:48:49.000Z,99995
2018-08-06T16:50:49.000Z,99993
2018-08-06T16:51:49.000Z,99991
2018-08-06T16:53:34.000Z,99983
2018-08-06T16:54:49.000Z,99985
2018-08-06T16:56:49.000Z,99989
2018-08-06T16:58:49.000Z,99989
2018-08-06T16:59:49.000Z,99987
2018-08-06T17:01:49.000Z,99979
2018-08-06T17:02:49.000Z,99984
2018-08-06T17:03:49.000Z,99984
2018-08-06T17:05:49.000Z,99983
2018-08-06T17:07:49.000Z,99984
2018-08-06T17:08:49.000Z,99983
2018-08-06T17:09:49.000Z,99977
2018-08-06T17:11:49.000Z,99977
2018-08-06T17:13:49.000Z,99979
2018-08-06T17:14:49.000Z,99975
2018-08-06T17:16:34.000Z,99976
2018-08-06T17:17:49.000Z,99977
2018-08-06T17:19:49.000Z,99971
2018-08-06T17:20:49.000Z,99976
2018-08-06T17:21:49.000Z,99976
2018-08-06T17:23:49.000Z,99977
2018-08-06T17:25:49.000Z,99981
2018-08-06T17:27:49.000Z,99974
2018-08-06T17:29:49.000Z,99982
2018-08-06T17:31:49.000Z,99980
2018-08-06T17:33:49.000Z,99982
2018-08-06T17:35:34.000Z,99981
2018-08-06T17:36:49.000Z,99980
2018-08-06T17:37:49.000Z,99978
2018-08-06T17:38:49.000Z,99979
2018-08-06T17:40:49.000Z,99979
2018-08-06T17:42:34.000Z,99979
2018-08-06T17:43:49.000Z,99973
2018-08-06T17:45:49.000Z,99975
2018-08-06T17:47:49.000Z,99972
2018-08-06T17:49:49.000Z,99978
2018-08-06T17:51:49.000Z,99980
2018-08-06T17:53:50.000Z,99977
2018-08-06T17:55:50.000Z,99973
2018-08-06T17:57:50.000Z,99977
2018-08-06T17:59:34.000Z,99975
2018-08-06T18:00:50.000Z,99973
2018-08-06T18:02:50.000Z,99965
2018-08-06T18:04:34.000Z,99972
2018-08-06T18:05:50.000Z,99967
2018-08-06T18:06:50.000Z,99967
2018-08-06T18:07:50.000Z,99969
2018-08-06T18:09:50.000Z,99971
2018-08-06T18:11:50.000Z,99967
2018-08-06T18:13:50.000Z,99969
2018-08-06T18:15:50.000Z,99969
2018-08-06T18:17:34.000Z,99979
2018-08-06T18:18:50.000Z,99969
2018-08-06T18:20:50.000Z,99969
2018-08-06T18:22:50.000Z,99973
2018-08-06T18:23:50.000Z,99968
2018-08-06T18:25:50.000Z,99971
2018-08-06T18:26:50.000Z,99971
2018-08-06T18:28:50.000Z,99970
2018-08-06T18:30:50.000Z,99973
2018-08-06T18:32:50.000Z,99973
2018-08-06T18:33:50.000Z,99972
2018-08-06T18:35:34.000Z,99978
2018-08-06T18:36:50.000Z,99977
2018-08-06T18:38:19.000Z,99976
2018-08-06T18:39:50.000Z,99974
2018-08-06T18:41:50.000Z,99973
2018-08-06T18:42:50.000Z,99973
2018-08-06T18:44:50.000Z,99973
2018-08-06T18:46:50.000Z,99981
2018-08-06T18:48:50.000Z,99977
2018-08-06T18:50:50.000Z,99977
2018-08-06T18:52:50.000Z,99978
2018-08-06T18:54:50.000Z,99978
2018-08-06T18:55:50.000Z,99976
2018-08-06T18:57:34.000Z,99979
2018-08-06T18:58:50.000Z,99977
2018-08-06T19:00:50.000Z,99973
2018-08-06T19:02:34.000Z,99972
2018-08-06T19:03:50.000Z,99975
2018-08-06T19:04:50.000Z,99975
2018-08-06T19:06:34.000Z,99979
2018-08-06T19:07:50.000Z,99972
2018-08-06T19:08:50.000Z,99977
2018-08-06T19:10:50.000Z,99970
2018-08-06T19:12:50.000Z,99975
2018-08-06T19:13:50.000Z,99973
2018-08-06T19:15:50.000Z,99978
2018-08-06T19:16:50.000Z,99980
2018-08-06T19:18:34.000Z,99975
2018-08-06T19:19:50.000Z,99977
2018-08-06T19:21:50.000Z,99979
2018-08-06T19:23:50.000Z,99982
2018-08-06T19:24:50.000Z,99986
2018-08-06T19:26:50.000Z,99984
2018-08-06T19:27:50.000Z,99983
2018-08-06T19:28:50.000Z,99989
2018-08-06T19:30:50.000Z,99991
2018-08-06T19:32:34.000Z,99990
2018-08-06T19:33:50.000Z,99989
2018-08-06T19:35:50.000Z,99988
2018-08-06T19:37:50.000Z,99984
2018-08-06T19:38:50.000Z,99986
2018-08-06T19:40:34.000Z,99992
2018-08-06T19:41:34.000Z,99990
2018-08-06T19:42:50.000Z,99992
2018-08-06T19:44:50.000Z,99991
2018-08-06T19:45:50.000Z,99989
2018-08-06T19:47:50.000Z,99987
2018-08-06T19:49:50.000Z,99989
2018-08-06T19:51:50.000Z,99990
2018-08-06T19:52:50.000Z,99988
2018-08-06T19:54:50.000Z,99990
2018-08-06T19:56:50.000Z,99991
2018-08-06T19:58:50.000Z,99993
2018-08-06T20:00:49.000Z,99993
2018-08-06T20:01:49.000Z,99995
2018-08-06T20:03:34.000Z,99991
2018-08-06T20:04:49.000Z,99996
2018-08-06T20:05:49.000Z,99993
2018-08-06T20:06:49.000Z,99991
2018-08-06T20:08:49.000Z,99991
2018-08-06T20:09:49.000Z,99997
2018-08-06T20:11:49.000Z,100000
2018-08-06T20:13:49.000Z,99997
2018-08-06T20:15:49.000Z,100001
2018-08-06T20:17:34.000Z,99999
2018-08-06T20:18:49.000Z,99997
2018-08-06T20:20:49.000Z,100004
2018-08-06T20:22:49.000Z,100000
2018-08-06T20:23:49.000Z,99998
2018-08-06T20:24:49.000Z,100000
2018-08-06T20:26:19.000Z,100000
2018-08-06T20:27:49.000Z,99997
2018-08-06T20:28:49.000Z,100001
2018-08-06T20:30:49.000Z,99997